Thursday, September 20, 2018, 8:40 AM EDT
Back to Local

KFRG, Farmingdale Republic Airport

Location: Farmingdale, NY, United States Lat: 40.733
Local Time: 8:40 AM EDT (12:40 GMT) Lon: -73.417
Time Zone: US/Eastern Elev: 82 ft

Show me the last for .
Show Decoded

2018-09-20 07:53 METAR KFRG 201153Z 02005KT 10SM OVC036 17/14 A3020 RMK AO2 SLP225 T01720139
                 10178 20167 53025 =
2018-09-20 06:53 METAR KFRG 201053Z AUTO 00000KT 10SM OVC050 17/14 A3016 RMK AO2 SLP212 T01670139
                 =
2018-09-20 05:53 METAR KFRG 200953Z AUTO 06005KT 10SM OVC050 17/13 A3014 RMK AO2 SLP205 T01670133
                 =
2018-09-20 04:53 METAR KFRG 200853Z AUTO 08005KT 10SM OVC055 17/13 A3012 RMK AO2 SLP199 T01670133
                 53008 =
2018-09-20 03:53 METAR KFRG 200753Z AUTO 06004KT 10SM SCT030 BKN060 17/13 A3011 RMK AO2 SLP195
                 T01670133 =
2018-09-20 03:05 METAR KFRG 200705Z AUTO 08006KT 10SM SCT027 OVC060 17/13 A3009 RMK AO2 T01720133
                 =
2018-09-20 02:53 METAR KFRG 200653Z AUTO 06004KT 10SM BKN027 OVC055 17/13 A3010 RMK AO2 SLP191
                 T01720133 =
2018-09-20 01:53 METAR KFRG 200553Z AUTO 08005KT 10SM SCT020 BKN028 BKN048 17/14 A3010 RMK AO2
                 SLP191 T01720139 10211 20172 53012 =
2018-09-20 00:53 METAR KFRG 200453Z AUTO 09009KT 10SM SCT019 OVC025 18/14 A3009 RMK AO2 SLP188
                 T01830139 402720183 =
2018-09-20 00:20 METAR KFRG 200420Z AUTO 09009KT 10SM BKN017 OVC030 19/16 A3008 RMK AO2 T01890156
                 =
2018-09-19 23:53 METAR KFRG 200353Z AUTO 08007KT 10SM SCT021 OVC034 19/16 A3007 RMK AO2 SLP183
                 T01890156 =
2018-09-19 22:53 METAR KFRG 200253Z AUTO 09006KT 10SM BKN018 BKN027 OVC038 20/17 A3006 RMK AO2
                 SLP180 T02000167 51026 =
2018-09-19 22:28 METAR KFRG 200228Z 09007KT 10SM SCT023 BKN029 OVC035 20/17 A3006 RMK AO2
                 T02000167 =
2018-09-19 22:02 METAR KFRG 200202Z 08004KT 10SM FEW019 BKN033 21/17 A3004 RMK AO2 T02060172 =
2018-09-19 21:53 METAR KFRG 200153Z 09008KT 10SM SCT013 BKN019 OVC034 21/17 A3004 RMK AO2 SLP171
                 T02060172 =
2018-09-19 20:53 METAR KFRG 200053Z 11007KT 10SM FEW013 OVC018 21/18 A3002 RMK AO2 SLP165
                 T02060178 =
2018-09-19 19:53 METAR KFRG 192353Z 13008KT 10SM OVC020 21/18 A2999 RMK AO2 SLP154 T02110183
                 10272 20211 51014 =
2018-09-19 18:53 METAR KFRG 192253Z 13009KT 10SM BKN018 21/19 A2997 RMK AO2 SLP148 T02110189 =
2018-09-19 18:50 METAR KFRG 192250Z 13012KT 10SM BKN018 22/19 A2997 RMK AO2 =
2018-09-19 17:53 METAR KFRG 192153Z 16009KT 10SM FEW030 23/19 A2995 RMK AO2 SLP140 T02280194 =
2018-09-19 16:53 METAR KFRG 192053Z 06007KT 10SM CLR 26/18 A2991 RMK AO2 SLP128 T02560183 53001 =
2018-09-19 15:53 METAR KFRG 191953Z 04008KT 010V070 10SM FEW034 FEW055 27/18 A2991 RMK AO2 SLP127
                 T02670183 =
2018-09-19 14:53 METAR KFRG 191853Z 02009KT 10SM SCT055 27/18 A2990 RMK AO2 SLP125 T02670178 =
2018-09-19 13:53 METAR KFRG 191753Z 05008KT 10SM CLR 27/19 A2991 RMK AO2 SLP127 T02720189 10272
                 20211 50003 =
2018-09-19 12:53 METAR KFRG 191653Z 05009KT 10SM FEW060 26/19 A2991 RMK AO2 SLP128 T02610189 =
2018-09-19 11:53 METAR KFRG 191553Z 04011KT 10SM CLR 25/19 A2991 RMK AO2 SLP127 T02500189 =
2018-09-19 10:53 METAR KFRG 191453Z 03013KT 10SM CLR 25/19 A2990 RMK AO2 SLP124 T02500189 53018 =
2018-09-19 09:53 METAR KFRG 191353Z 04009KT 10SM CLR 24/19 A2988 RMK AO2 SLP117 T02390194 =
2018-09-19 08:53 METAR KFRG 191253Z 03011KT 10SM CLR 22/19 A2986 RMK AO2 SLP111 T02220189 =

Support USWX by starting your Amazon purchase here.